createdAt,value
2018-02-04T00:02:05.031Z,3.60
2018-02-04T00:04:33.179Z,3.47
2018-02-04T00:07:01.206Z,3.37
2018-02-04T00:09:29.087Z,3.50
2018-02-04T00:11:57.106Z,3.62
2018-02-04T00:14:25.338Z,3.70
2018-02-04T00:16:53.648Z,3.28
2018-02-04T00:19:22.098Z,3.28
2018-02-04T00:21:50.774Z,3.55
2018-02-04T00:24:19.987Z,3.33
2018-02-04T00:26:48.582Z,3.67
2018-02-04T00:29:16.942Z,3.70
2018-02-04T00:31:47.248Z,3.70
2018-02-04T00:34:17.865Z,3.72
2018-02-04T00:36:47.441Z,3.65
2018-02-04T00:39:17.414Z,3.90
2018-02-04T00:41:47.459Z,4.12
2018-02-04T00:44:16.015Z,3.67
2018-02-04T00:46:45.012Z,4.03
2018-02-04T00:49:14.265Z,3.78
2018-02-04T00:51:43.185Z,4.20
2018-02-04T00:54:12.300Z,4.03
2018-02-04T00:56:41.384Z,3.93
2018-02-04T00:59:10.404Z,3.62
2018-02-04T01:01:40.316Z,3.80
2018-02-04T01:04:10.012Z,3.90
2018-02-04T01:06:39.997Z,3.85
2018-02-04T01:09:08.581Z,4.07
2018-02-04T01:11:37.534Z,4.27
2018-02-04T01:14:07.717Z,3.78
2018-02-04T01:16:35.997Z,3.55
2018-02-04T01:19:04.535Z,3.60
2018-02-04T01:21:33.192Z,3.95
2018-02-04T01:24:02.433Z,3.57
2018-02-04T01:26:31.382Z,4.07
2018-02-04T01:29:01.452Z,3.40
2018-02-04T01:31:30.683Z,3.72
2018-02-04T01:33:59.193Z,3.40
2018-02-04T01:36:28.040Z,3.40
2018-02-04T01:38:57.472Z,3.40
2018-02-04T01:41:26.374Z,3.58
2018-02-04T01:43:55.272Z,3.40
2018-02-04T01:46:23.849Z,3.55
2018-02-04T01:48:53.561Z,3.60
2018-02-04T01:51:21.863Z,3.78
2018-02-04T01:53:49.595Z,3.62
2018-02-04T01:56:17.267Z,4.10
2018-02-04T01:58:44.920Z,3.50
2018-02-04T02:01:12.609Z,3.93
2018-02-04T02:03:40.351Z,3.77
2018-02-04T02:06:08.111Z,3.70
2018-02-04T02:08:35.772Z,3.90
2018-02-04T02:11:04.074Z,3.85
2018-02-04T02:13:31.756Z,3.60
2018-02-04T02:15:59.391Z,3.67
2018-02-04T02:18:27.045Z,3.62
2018-02-04T02:20:54.744Z,3.75
2018-02-04T02:23:22.435Z,3.50
2018-02-04T02:25:50.081Z,3.55
2018-02-04T02:28:17.753Z,3.40
2018-02-04T02:30:45.437Z,3.45
2018-02-04T02:33:13.217Z,3.42
2018-02-04T02:35:40.845Z,3.40
2018-02-04T02:38:08.475Z,3.45
2018-02-04T02:40:36.162Z,3.40
2018-02-04T02:43:03.815Z,3.45
2018-02-04T02:45:32.247Z,3.80
2018-02-04T02:48:00.300Z,3.10
2018-02-04T02:50:28.034Z,3.22
2018-02-04T02:52:56.500Z,3.10
2018-02-04T02:55:24.218Z,3.17
2018-02-04T02:57:51.958Z,3.28
2018-02-04T03:00:19.629Z,3.10
2018-02-04T03:02:48.086Z,3.62
2018-02-04T03:05:15.717Z,3.60
2018-02-04T03:07:43.493Z,3.67
2018-02-04T03:10:11.129Z,3.80
2018-02-04T03:12:38.863Z,3.10
2018-02-04T03:15:06.511Z,3.60
2018-02-04T03:17:34.123Z,3.33
2018-02-04T03:20:02.567Z,3.33
2018-02-04T03:22:30.231Z,3.03
2018-02-04T03:24:58.228Z,3.40
2018-02-04T03:27:26.629Z,3.25
2018-02-04T03:29:54.264Z,3.25
2018-02-04T03:32:22.032Z,3.20
2018-02-04T03:34:49.697Z,3.00
2018-02-04T03:37:17.330Z,3.25
2018-02-04T03:39:44.986Z,3.25
2018-02-04T03:42:12.646Z,3.08
2018-02-04T03:44:40.488Z,3.00
2018-02-04T03:47:08.079Z,3.10
2018-02-04T03:49:35.749Z,3.37
2018-02-04T03:52:03.569Z,3.10
2018-02-04T03:54:31.189Z,3.08
2018-02-04T03:56:58.853Z,3.20
2018-02-04T03:59:26.485Z,3.08
2018-02-04T04:01:54.249Z,3.20
2018-02-04T04:04:21.910Z,3.40
2018-02-04T04:06:49.525Z,3.55
2018-02-04T04:09:17.228Z,3.45
2018-02-04T04:11:45.451Z,3.90
2018-02-04T04:14:13.139Z,3.20
2018-02-04T04:16:40.756Z,3.33
2018-02-04T04:19:08.458Z,3.40
2018-02-04T04:21:36.871Z,3.33
2018-02-04T04:24:04.534Z,3.22
2018-02-04T04:26:32.197Z,3.33
2018-02-04T04:28:59.823Z,2.70
2018-02-04T04:31:27.453Z,3.25
2018-02-04T04:33:55.258Z,3.22
2018-02-04T04:36:22.869Z,3.33
2018-02-04T04:38:50.549Z,3.30
2018-02-04T04:41:18.195Z,3.20
2018-02-04T04:43:45.852Z,3.45
2018-02-04T04:46:13.514Z,3.40
2018-02-04T04:48:41.912Z,3.60
2018-02-04T04:51:09.605Z,3.50
2018-02-04T04:53:37.245Z,3.60
2018-02-04T04:56:04.860Z,3.30
2018-02-04T04:58:32.520Z,3.10
2018-02-04T05:01:00.129Z,3.17
2018-02-04T05:03:27.784Z,3.28
2018-02-04T05:05:55.468Z,3.65
2018-02-04T05:08:23.094Z,3.85
2018-02-04T05:10:50.723Z,3.90
2018-02-04T05:13:18.384Z,3.72
2018-02-04T05:15:46.087Z,3.37
2018-02-04T05:18:13.758Z,3.10
2018-02-04T05:20:41.409Z,3.40
2018-02-04T05:23:09.037Z,3.50
2018-02-04T05:25:37.449Z,3.55
2018-02-04T05:28:05.071Z,3.70
2018-02-04T05:30:32.732Z,3.87
2018-02-04T05:33:01.133Z,3.58
2018-02-04T05:35:29.565Z,3.27
2018-02-04T05:37:57.166Z,3.15
2018-02-04T05:40:25.606Z,3.50
2018-02-04T05:42:53.233Z,3.37
2018-02-04T05:45:21.645Z,3.45
2018-02-04T05:47:49.317Z,3.58
2018-02-04T05:50:16.980Z,3.30
2018-02-04T05:52:44.626Z,3.58
2018-02-04T05:55:12.556Z,3.40
2018-02-04T05:57:40.297Z,3.35
2018-02-04T06:00:07.954Z,3.90
2018-02-04T06:02:35.618Z,3.65
2018-02-04T06:05:03.217Z,3.60
2018-02-04T06:07:30.858Z,3.62
2018-02-04T06:09:58.478Z,3.83
2018-02-04T06:12:27.020Z,3.40
2018-02-04T06:14:54.657Z,3.50
2018-02-04T06:17:22.302Z,3.78
2018-02-04T06:19:50.705Z,3.80
2018-02-04T06:22:18.320Z,3.77
2018-02-04T06:24:46.008Z,4.10
2018-02-04T06:27:14.434Z,3.60
2018-02-04T06:29:42.049Z,3.60
2018-02-04T06:32:09.715Z,3.53
2018-02-04T06:34:37.347Z,3.83
2018-02-04T06:37:04.976Z,4.00
2018-02-04T06:39:33.375Z,3.70
2018-02-04T06:42:01.023Z,3.72
2018-02-04T06:44:29.426Z,3.40
2018-02-04T06:46:57.046Z,3.60
2018-02-04T06:49:24.722Z,3.40
2018-02-04T06:51:52.381Z,4.18
2018-02-04T06:54:20.007Z,3.53
2018-02-04T06:56:47.762Z,3.17
2018-02-04T06:59:15.420Z,3.60
2018-02-04T07:01:43.819Z,3.50
2018-02-04T07:04:11.473Z,3.77
2018-02-04T07:06:39.133Z,4.03
2018-02-04T07:09:07.531Z,4.00
2018-02-04T07:11:35.164Z,3.83
2018-02-04T07:14:02.819Z,4.03
2018-02-04T07:16:30.797Z,3.90
2018-02-04T07:18:58.885Z,3.53
2018-02-04T07:21:26.514Z,3.33
2018-02-04T07:23:54.207Z,3.33
2018-02-04T07:26:21.869Z,3.50
2018-02-04T07:28:50.330Z,3.65
2018-02-04T07:31:18.013Z,3.62
2018-02-04T07:33:45.653Z,3.40
2018-02-04T07:36:13.312Z,3.58
2018-02-04T07:38:41.043Z,3.85
2018-02-04T07:41:08.670Z,4.00
2018-02-04T07:43:36.405Z,3.92
2018-02-04T07:46:04.068Z,3.75
2018-02-04T07:48:31.718Z,3.28
2018-02-04T07:51:01.339Z,3.62
2018-02-04T07:53:29.507Z,3.50
2018-02-04T07:55:57.167Z,3.95
2018-02-04T07:58:25.573Z,3.35
2018-02-04T08:00:53.894Z,4.00
2018-02-04T08:03:21.930Z,4.12
2018-02-04T08:05:49.685Z,4.03
2018-02-04T08:08:18.484Z,4.50
2018-02-04T08:10:46.535Z,4.07
2018-02-04T08:13:15.323Z,4.00
2018-02-04T08:15:43.482Z,3.92
2018-02-04T08:18:11.712Z,4.20
2018-02-04T08:20:39.577Z,4.05
2018-02-04T08:23:07.504Z,3.90
2018-02-04T08:25:35.595Z,4.15
2018-02-04T08:28:04.177Z,4.40
2018-02-04T08:30:32.255Z,4.45
2018-02-04T08:33:00.308Z,4.70
2018-02-04T08:35:28.277Z,4.55
2018-02-04T08:37:56.229Z,4.93
2018-02-04T08:40:24.574Z,4.55
2018-02-04T08:42:52.735Z,5.05
2018-02-04T08:45:20.726Z,4.40
2018-02-04T08:47:49.032Z,4.28
2018-02-04T08:50:17.379Z,4.80
2018-02-04T08:52:46.328Z,4.93
2018-02-04T08:55:15.307Z,4.90
2018-02-04T08:57:43.671Z,4.75
2018-02-04T09:00:11.570Z,4.80
2018-02-04T09:02:40.317Z,4.53
2018-02-04T09:05:08.411Z,4.87
2018-02-04T09:07:36.152Z,5.07
2018-02-04T09:10:04.329Z,5.00
2018-02-04T09:12:33.131Z,4.87
2018-02-04T09:15:02.352Z,4.70
2018-02-04T09:17:30.584Z,4.53
2018-02-04T09:19:58.269Z,4.43
2018-02-04T09:22:25.916Z,5.32
2018-02-04T09:24:54.318Z,4.68
2018-02-04T09:27:21.935Z,4.62
2018-02-04T09:29:50.542Z,4.50
2018-02-04T09:32:18.226Z,4.32
2018-02-04T09:34:46.951Z,4.25
2018-02-04T09:37:14.683Z,4.55
2018-02-04T09:39:42.383Z,5.03
2018-02-04T09:42:10.091Z,4.63
2018-02-04T09:44:38.505Z,4.70
2018-02-04T09:47:06.193Z,4.03
2018-02-04T09:49:33.872Z,4.35
2018-02-04T09:52:01.478Z,3.78
2018-02-04T09:54:29.172Z,3.97
2018-02-04T09:56:56.827Z,4.32
2018-02-04T09:59:24.475Z,4.00
2018-02-04T10:01:52.183Z,3.97
2018-02-04T10:04:20.545Z,3.72
2018-02-04T10:06:48.963Z,3.70
2018-02-04T10:09:16.637Z,3.53
2018-02-04T10:11:44.422Z,3.40
2018-02-04T10:14:12.077Z,3.75
2018-02-04T10:16:39.706Z,3.42
2018-02-04T10:19:07.457Z,3.72
2018-02-04T10:21:35.994Z,3.72
2018-02-04T10:24:03.735Z,3.25
2018-02-04T10:26:31.368Z,2.90
2018-02-04T10:29:01.701Z,3.40
2018-02-04T10:31:30.101Z,3.15
2018-02-04T10:33:57.743Z,2.90
2018-02-04T10:36:26.224Z,3.05
2018-02-04T10:38:53.895Z,3.10
2018-02-04T10:41:21.533Z,2.87
2018-02-04T10:43:49.183Z,3.10
2018-02-04T10:46:16.783Z,2.65
2018-02-04T10:48:44.435Z,2.67
2018-02-04T10:51:17.600Z,2.60
2018-02-04T10:53:45.376Z,2.58
2018-02-04T10:56:13.658Z,2.90
2018-02-04T10:58:41.319Z,2.50
2018-02-04T11:01:09.088Z,3.03
2018-02-04T11:03:36.756Z,2.30
2018-02-04T11:06:04.417Z,2.30
2018-02-04T11:08:32.260Z,2.62
2018-02-04T11:11:00.689Z,2.42
2018-02-04T11:13:28.395Z,2.17
2018-02-04T11:15:56.810Z,2.20
2018-02-04T11:18:24.502Z,2.33
2018-02-04T11:20:52.213Z,2.30
2018-02-04T11:23:20.710Z,2.50
2018-02-04T11:25:49.077Z,2.30
2018-02-04T11:28:16.702Z,2.40
2018-02-04T11:30:44.372Z,1.95
2018-02-04T11:33:12.038Z,2.20
2018-02-04T11:35:40.470Z,2.17
2018-02-04T11:38:08.537Z,2.10
2018-02-04T11:40:36.151Z,2.20
2018-02-04T11:43:03.792Z,1.83
2018-02-04T11:45:33.015Z,2.00
2018-02-04T11:48:00.890Z,1.90
2018-02-04T11:50:28.653Z,2.10
2018-02-04T11:52:56.374Z,2.00
2018-02-04T11:55:24.110Z,2.03
2018-02-04T11:57:51.802Z,2.10
2018-02-04T12:00:20.920Z,2.20
2018-02-04T12:02:48.567Z,2.10
2018-02-04T12:05:16.648Z,1.98
2018-02-04T12:07:44.299Z,2.25
2018-02-04T12:10:11.968Z,1.95
2018-02-04T12:12:39.595Z,1.98
2018-02-04T12:15:07.334Z,2.10
2018-02-04T12:17:34.920Z,2.08
2018-02-04T12:20:03.307Z,1.92
2018-02-04T12:22:31.757Z,1.87
2018-02-04T12:24:59.391Z,2.00
2018-02-04T12:27:26.997Z,2.10
2018-02-04T12:29:54.632Z,2.10
2018-02-04T12:32:22.285Z,1.73
2018-02-04T12:34:49.908Z,2.15
2018-02-04T12:37:18.286Z,2.37
2018-02-04T12:39:46.800Z,2.00
2018-02-04T12:42:14.438Z,2.00
2018-02-04T12:44:42.056Z,2.12
2018-02-04T12:47:10.115Z,2.30
2018-02-04T12:49:37.787Z,2.58
2018-02-04T12:52:05.626Z,2.22
2018-02-04T12:54:34.026Z,2.40
2018-02-04T12:57:01.686Z,2.15
2018-02-04T12:59:30.108Z,2.28
2018-02-04T13:01:57.819Z,2.67
2018-02-04T13:04:25.453Z,2.58
2018-02-04T13:06:53.107Z,2.40
2018-02-04T13:09:20.710Z,2.13
2018-02-04T13:11:48.770Z,2.20
2018-02-04T13:14:16.385Z,2.40
2018-02-04T13:16:44.011Z,2.40
2018-02-04T13:19:11.663Z,2.37
2018-02-04T13:21:39.416Z,2.30
2018-02-04T13:24:07.031Z,2.35
2018-02-04T13:26:35.847Z,2.10
2018-02-04T13:29:03.467Z,2.40
2018-02-04T13:31:31.109Z,2.33
2018-02-04T13:33:58.751Z,2.43
2018-02-04T13:36:26.402Z,2.53
2018-02-04T13:38:54.090Z,2.58
2018-02-04T13:41:21.780Z,2.22
2018-02-04T13:43:49.402Z,2.65
2018-02-04T13:46:17.059Z,2.60
2018-02-04T13:48:45.586Z,2.42
2018-02-04T13:51:13.201Z,2.20
2018-02-04T13:53:40.920Z,2.43
2018-02-04T13:56:08.885Z,2.40
2018-02-04T13:58:36.501Z,2.80
2018-02-04T14:01:04.148Z,2.70
2018-02-04T14:03:31.783Z,2.40
2018-02-04T14:05:59.473Z,2.85
2018-02-04T14:08:27.106Z,2.60
2018-02-04T14:10:54.951Z,2.62
2018-02-04T14:13:22.553Z,3.05
2018-02-04T14:15:50.170Z,2.83
2018-02-04T14:18:17.816Z,3.58
2018-02-04T14:20:45.471Z,2.80
2018-02-04T14:23:13.129Z,3.05
2018-02-04T14:25:40.785Z,2.90
2018-02-04T14:28:08.438Z,3.30
2018-02-04T14:30:36.967Z,2.90
2018-02-04T14:33:04.630Z,3.05
2018-02-04T14:35:32.227Z,3.22
2018-02-04T14:38:00.139Z,3.03
2018-02-04T14:40:27.760Z,3.67
2018-02-04T14:42:55.403Z,3.22
2018-02-04T14:45:23.079Z,3.40
2018-02-04T14:47:51.481Z,3.33
2018-02-04T14:50:19.901Z,3.40
2018-02-04T14:52:47.549Z,3.40
2018-02-04T14:55:15.160Z,3.70
2018-02-04T14:57:42.828Z,3.67
2018-02-04T15:00:10.418Z,3.15
2018-02-04T15:02:38.832Z,4.20
2018-02-04T15:05:06.494Z,3.20
2018-02-04T15:07:34.161Z,3.95
2018-02-04T15:10:01.759Z,3.20
2018-02-04T15:12:29.423Z,3.60
2018-02-04T15:14:57.084Z,4.30
2018-02-04T15:17:24.731Z,3.50
2018-02-04T15:19:52.342Z,3.55
2018-02-04T15:22:20.001Z,4.00
2018-02-04T15:24:47.603Z,4.15
2018-02-04T15:27:15.463Z,3.95
2018-02-04T15:29:43.089Z,3.37
2018-02-04T15:32:10.764Z,4.18
2018-02-04T15:34:39.151Z,3.80
2018-02-04T15:37:06.785Z,4.12
2018-02-04T15:39:34.481Z,4.32
2018-02-04T15:42:02.134Z,3.65
2018-02-04T15:44:30.475Z,4.37
2018-02-04T15:46:58.143Z,4.68
2018-02-04T15:49:25.792Z,4.47
2018-02-04T15:51:53.620Z,4.50
2018-02-04T15:54:21.229Z,5.00
2018-02-04T15:56:48.869Z,4.97
2018-02-04T15:59:16.680Z,4.55
2018-02-04T16:01:44.316Z,4.82
2018-02-04T16:04:11.990Z,5.00
2018-02-04T16:06:39.628Z,5.00
2018-02-04T16:09:07.741Z,5.10
2018-02-04T16:11:35.509Z,4.95
2018-02-04T16:14:03.147Z,5.43
2018-02-04T16:16:30.814Z,5.50
2018-02-04T16:18:58.501Z,5.43
2018-02-04T16:21:26.175Z,5.20
2018-02-04T16:23:53.897Z,5.10
2018-02-04T16:26:21.502Z,5.12
2018-02-04T16:28:49.166Z,5.60
2018-02-04T16:31:16.780Z,5.37
2018-02-04T16:33:44.468Z,5.47
2018-02-04T16:36:12.118Z,5.40
2018-02-04T16:38:39.820Z,5.40
2018-02-04T16:41:07.861Z,5.50
2018-02-04T16:43:37.201Z,5.60
2018-02-04T16:46:06.874Z,5.72
2018-02-04T16:48:34.564Z,6.25
2018-02-04T16:51:05.872Z,5.65
2018-02-04T16:53:34.259Z,5.15
2018-02-04T16:56:01.938Z,5.95
2018-02-04T16:58:29.555Z,5.65
2018-02-04T17:00:57.201Z,6.00
2018-02-04T17:03:24.851Z,6.37
2018-02-04T17:05:52.624Z,5.93
2018-02-04T17:08:20.252Z,6.20
2018-02-04T17:10:48.724Z,6.20
2018-02-04T17:13:16.324Z,6.05
2018-02-04T17:15:44.752Z,6.67
2018-02-04T17:18:12.381Z,6.40
2018-02-04T17:20:40.758Z,6.28
2018-02-04T17:23:09.153Z,6.32
2018-02-04T17:25:36.889Z,6.18
2018-02-04T17:28:04.512Z,6.85
2018-02-04T17:30:32.149Z,6.32
2018-02-04T17:32:59.793Z,5.93
2018-02-04T17:35:28.237Z,6.68
2018-02-04T17:37:55.877Z,6.07
2018-02-04T17:40:23.706Z,6.40
2018-02-04T17:42:52.089Z,6.30
2018-02-04T17:45:19.728Z,6.60
2018-02-04T17:47:47.545Z,6.05
2018-02-04T17:50:15.210Z,6.25
2018-02-04T17:52:43.612Z,6.22
2018-02-04T17:55:11.400Z,6.65
2018-02-04T17:57:39.761Z,6.25
2018-02-04T18:00:07.461Z,6.37
2018-02-04T18:02:35.046Z,6.18
2018-02-04T18:05:02.854Z,7.03
2018-02-04T18:07:31.213Z,6.53
2018-02-04T18:09:58.819Z,6.70
2018-02-04T18:12:27.336Z,6.87
2018-02-04T18:14:54.998Z,6.82
2018-02-04T18:17:22.674Z,6.75
2018-02-04T18:19:50.275Z,6.43
2018-02-04T18:22:17.925Z,6.75
2018-02-04T18:24:45.505Z,7.32
2018-02-04T18:27:13.234Z,7.53
2018-02-04T18:29:40.874Z,6.50
2018-02-04T18:32:09.230Z,7.07
2018-02-04T18:34:36.900Z,8.35
2018-02-04T18:37:04.542Z,7.72
2018-02-04T18:39:32.239Z,7.77
2018-02-04T18:42:00.653Z,7.37
2018-02-04T18:44:28.307Z,7.03
2018-02-04T18:46:55.908Z,7.85
2018-02-04T18:49:23.618Z,7.75
2018-02-04T18:51:52.035Z,8.65
2018-02-04T18:54:19.693Z,8.68
2018-02-04T18:56:47.365Z,8.85
2018-02-04T18:59:15.343Z,8.23
2018-02-04T19:01:43.095Z,8.55
2018-02-04T19:04:11.797Z,8.15
2018-02-04T19:06:40.218Z,8.60
2018-02-04T19:09:07.890Z,7.80
2018-02-04T19:11:35.572Z,8.07
2018-02-04T19:14:03.247Z,9.13
2018-02-04T19:16:31.724Z,8.73
2018-02-04T19:18:59.387Z,8.50
2018-02-04T19:21:27.001Z,8.30
2018-02-04T19:23:54.978Z,8.23
2018-02-04T19:26:22.799Z,8.40
2018-02-04T19:28:51.354Z,9.05
2018-02-04T19:31:19.131Z,7.95
2018-02-04T19:33:46.759Z,8.60
2018-02-04T19:36:15.259Z,8.95
2018-02-04T19:38:43.815Z,9.40
2018-02-04T19:41:12.304Z,8.70
2018-02-04T19:43:40.741Z,10.07
2018-02-04T19:46:08.456Z,9.23
2018-02-04T19:48:36.873Z,9.10
2018-02-04T19:51:07.635Z,8.50
2018-02-04T19:53:35.328Z,8.75
2018-02-04T19:56:03.806Z,9.38
2018-02-04T19:58:31.472Z,9.23
2018-02-04T20:00:59.542Z,9.07
2018-02-04T20:03:27.134Z,9.30
2018-02-04T20:05:54.785Z,9.45
2018-02-04T20:08:22.441Z,9.60
2018-02-04T20:10:50.299Z,9.97
2018-02-04T20:13:17.940Z,9.38
2018-02-04T20:15:45.669Z,9.00
2018-02-04T20:18:14.443Z,8.68
2018-02-04T20:20:42.105Z,8.77
2018-02-04T20:23:09.836Z,9.15
2018-02-04T20:25:38.911Z,9.02
2018-02-04T20:28:06.536Z,8.47
2018-02-04T20:30:34.321Z,8.80
2018-02-04T20:33:13.890Z,8.85
2018-02-04T20:35:41.543Z,9.10
2018-02-04T20:38:09.191Z,9.20
2018-02-04T20:40:36.869Z,8.77
2018-02-04T20:43:04.558Z,8.70
2018-02-04T20:45:32.194Z,9.30
2018-02-04T20:47:59.901Z,9.52
2018-02-04T20:50:27.600Z,8.75
2018-02-04T20:52:55.380Z,8.30
2018-02-04T20:55:23.783Z,8.93
2018-02-04T20:57:52.029Z,8.90
2018-02-04T21:00:19.736Z,9.05
2018-02-04T21:02:47.385Z,9.43
2018-02-04T21:05:15.069Z,9.37
2018-02-04T21:07:42.744Z,8.95
2018-02-04T21:10:10.414Z,9.50
2018-02-04T21:12:38.013Z,8.60
2018-02-04T21:15:05.729Z,9.45
2018-02-04T21:17:33.334Z,9.13
2018-02-04T21:20:00.995Z,9.05
2018-02-04T21:22:28.688Z,9.27
2018-02-04T21:24:57.408Z,8.98
2018-02-04T21:27:25.065Z,9.48
2018-02-04T21:29:52.833Z,9.40
2018-02-04T21:32:20.481Z,9.33
2018-02-04T21:34:49.266Z,9.65
2018-02-04T21:37:16.983Z,9.17
2018-02-04T21:39:44.603Z,9.60
2018-02-04T21:42:12.261Z,9.25
2018-02-04T21:44:40.483Z,9.65
2018-02-04T21:47:09.026Z,10.02
2018-02-04T21:49:36.696Z,10.07
2018-02-04T21:52:04.362Z,9.75
2018-02-04T21:54:32.827Z,10.07
2018-02-04T21:57:00.446Z,9.65
2018-02-04T21:59:28.087Z,9.95
2018-02-04T22:01:55.804Z,9.10
2018-02-04T22:04:23.423Z,10.15
2018-02-04T22:06:52.506Z,9.70
2018-02-04T22:09:20.161Z,9.95
2018-02-04T22:11:47.801Z,10.32
2018-02-04T22:14:15.468Z,10.38
2018-02-04T22:16:43.918Z,10.68
2018-02-04T22:19:11.571Z,9.93
2018-02-04T22:21:39.963Z,10.55
2018-02-04T22:24:08.462Z,10.15
2018-02-04T22:26:36.884Z,10.15
2018-02-04T22:29:04.492Z,10.35
2018-02-04T22:31:32.143Z,10.27
2018-02-04T22:34:01.319Z,10.57
2018-02-04T22:36:28.955Z,9.57
2018-02-04T22:38:56.594Z,9.90
2018-02-04T22:41:25.026Z,10.13
2018-02-04T22:43:52.619Z,9.77
2018-02-04T22:46:20.291Z,10.60
2018-02-04T22:48:47.958Z,9.95
2018-02-04T22:51:15.619Z,9.93
2018-02-04T22:53:43.232Z,10.27
2018-02-04T22:56:11.068Z,9.60
2018-02-04T22:58:38.697Z,10.97
2018-02-04T23:01:06.309Z,10.52
2018-02-04T23:03:33.951Z,10.60
2018-02-04T23:06:01.556Z,9.60
2018-02-04T23:08:29.992Z,10.20
2018-02-04T23:10:57.619Z,9.38
2018-02-04T23:13:25.282Z,10.47
2018-02-04T23:15:53.713Z,10.13
2018-02-04T23:18:21.329Z,10.07
2018-02-04T23:20:49.010Z,10.05
2018-02-04T23:23:16.737Z,9.27
2018-02-04T23:25:44.370Z,10.10
2018-02-04T23:28:11.992Z,9.68
2018-02-04T23:30:40.357Z,9.85
2018-02-04T23:33:08.758Z,10.45
2018-02-04T23:35:37.180Z,9.55
2018-02-04T23:38:04.843Z,9.35
2018-02-04T23:40:32.526Z,10.13
2018-02-04T23:43:00.177Z,9.43
2018-02-04T23:45:28.750Z,10.40
2018-02-04T23:47:56.397Z,10.32
2018-02-04T23:50:24.839Z,10.27
2018-02-04T23:52:52.483Z,10.38
2018-02-04T23:55:20.157Z,10.30
2018-02-04T23:57:48.261Z,10.43
